sensor_id;sensor_type;location;lat;lon;timestamp;pressure;altitude;pressure_sealevel;temperature;humidity
24440;BME280;12618;54.386;18.394;2023-04-26T00:02:10;98862.88;;;4.97;89.49
24440;BME280;12618;54.386;18.394;2023-04-26T00:04:44;98862.23;;;4.96;89.76
24440;BME280;12618;54.386;18.394;2023-04-26T00:07:19;98863.09;;;4.96;90.07
24440;BME280;12618;54.386;18.394;2023-04-26T00:09:53;98863.95;;;4.96;90.92
24440;BME280;12618;54.386;18.394;2023-04-26T00:12:26;98865.62;;;4.98;91.20
24440;BME280;12618;54.386;18.394;2023-04-26T00:14:59;98864.14;;;5.00;91.50
24440;BME280;12618;54.386;18.394;2023-04-26T00:17:34;98865.39;;;5.03;91.41
24440;BME280;12618;54.386;18.394;2023-04-26T00:20:08;98864.59;;;5.06;91.85
24440;BME280;12618;54.386;18.394;2023-04-26T00:22:44;98854.34;;;5.10;91.73
24440;BME280;12618;54.386;18.394;2023-04-26T00:25:18;98856.26;;;5.14;92.04
24440;BME280;12618;54.386;18.394;2023-04-26T00:27:51;98857.02;;;5.17;92.09
24440;BME280;12618;54.386;18.394;2023-04-26T00:30:24;98853.40;;;5.20;91.79
24440;BME280;12618;54.386;18.394;2023-04-26T00:32:56;98851.41;;;5.22;92.02
24440;BME280;12618;54.386;18.394;2023-04-26T00:35:30;98855.34;;;5.24;91.74
24440;BME280;12618;54.386;18.394;2023-04-26T00:38:04;98853.89;;;5.26;92.02
24440;BME280;12618;54.386;18.394;2023-04-26T00:40:37;98852.43;;;5.27;91.85
24440;BME280;12618;54.386;18.394;2023-04-26T00:43:10;98856.58;;;5.28;91.86
24440;BME280;12618;54.386;18.394;2023-04-26T00:45:44;98852.36;;;5.29;91.81
24440;BME280;12618;54.386;18.394;2023-04-26T00:48:18;98848.66;;;5.30;91.54
24440;BME280;12618;54.386;18.394;2023-04-26T00:50:53;98845.11;;;5.31;91.16
24440;BME280;12618;54.386;18.394;2023-04-26T00:53:26;98849.70;;;5.34;91.48
24440;BME280;12618;54.386;18.394;2023-04-26T00:56:06;98848.40;;;5.36;91.66
24440;BME280;12618;54.386;18.394;2023-04-26T00:58:40;98848.38;;;5.36;91.11
24440;BME280;12618;54.386;18.394;2023-04-26T01:01:14;98848.20;;;5.37;91.00
24440;BME280;12618;54.386;18.394;2023-04-26T01:03:48;98851.98;;;5.39;91.04
24440;BME280;12618;54.386;18.394;2023-04-26T01:06:21;98849.86;;;5.39;91.26
24440;BME280;12618;54.386;18.394;2023-04-26T01:08:56;98853.54;;;5.39;90.80
24440;BME280;12618;54.386;18.394;2023-04-26T01:11:31;98850.41;;;5.39;91.08
24440;BME280;12618;54.386;18.394;2023-04-26T01:14:04;98850.73;;;5.39;91.08
24440;BME280;12618;54.386;18.394;2023-04-26T01:16:38;98851.58;;;5.40;91.31
24440;BME280;12618;54.386;18.394;2023-04-26T01:19:13;98852.88;;;5.41;91.60
24440;BME280;12618;54.386;18.394;2023-04-26T01:21:47;98853.29;;;5.41;91.70
24440;BME280;12618;54.386;18.394;2023-04-26T01:24:20;98852.36;;;5.42;92.00
24440;BME280;12618;54.386;18.394;2023-04-26T01:26:53;98856.45;;;5.40;91.60
24440;BME280;12618;54.386;18.394;2023-04-26T01:29:27;98850.23;;;5.38;91.96
24440;BME280;12618;54.386;18.394;2023-04-26T01:32:01;98848.98;;;5.39;91.80
24440;BME280;12618;54.386;18.394;2023-04-26T01:34:35;98849.91;;;5.42;91.92
24440;BME280;12618;54.386;18.394;2023-04-26T01:37:11;98845.90;;;5.42;92.11
24440;BME280;12618;54.386;18.394;2023-04-26T01:39:45;98847.30;;;5.42;91.87
24440;BME280;12618;54.386;18.394;2023-04-26T01:42:21;98850.77;;;5.42;92.49
24440;BME280;12618;54.386;18.394;2023-04-26T01:44:56;98851.59;;;5.43;92.43
24440;BME280;12618;54.386;18.394;2023-04-26T01:47:30;98850.78;;;5.42;92.43
24440;BME280;12618;54.386;18.394;2023-04-26T01:50:04;98849.88;;;5.39;92.53
24440;BME280;12618;54.386;18.394;2023-04-26T01:52:38;98850.27;;;5.37;92.59
24440;BME280;12618;54.386;18.394;2023-04-26T01:55:11;98851.21;;;5.36;92.95
24440;BME280;12618;54.386;18.394;2023-04-26T01:57:45;98847.30;;;5.37;93.47
24440;BME280;12618;54.386;18.394;2023-04-26T02:00:18;98846.36;;;5.39;93.58
24440;BME280;12618;54.386;18.394;2023-04-26T02:02:54;98846.87;;;5.40;93.52
24440;BME280;12618;54.386;18.394;2023-04-26T02:05:28;98849.73;;;5.38;93.38
24440;BME280;12618;54.386;18.394;2023-04-26T02:08:02;98846.98;;;5.37;93.34
24440;BME280;12618;54.386;18.394;2023-04-26T02:10:36;98849.59;;;5.37;93.54
24440;BME280;12618;54.386;18.394;2023-04-26T02:13:10;98852.27;;;5.36;92.99
24440;BME280;12618;54.386;18.394;2023-04-26T02:15:49;98849.19;;;5.34;93.14
24440;BME280;12618;54.386;18.394;2023-04-26T02:18:25;98848.55;;;5.32;93.18
24440;BME280;12618;54.386;18.394;2023-04-26T02:20:59;98849.06;;;5.32;93.54
24440;BME280;12618;54.386;18.394;2023-04-26T02:23:32;98847.95;;;5.34;93.39
24440;BME280;12618;54.386;18.394;2023-04-26T02:26:05;98845.90;;;5.33;93.66
24440;BME280;12618;54.386;18.394;2023-04-26T02:28:41;98844.23;;;5.31;93.95
24440;BME280;12618;54.386;18.394;2023-04-26T02:31:17;98844.27;;;5.30;93.82
24440;BME280;12618;54.386;18.394;2023-04-26T02:33:54;98842.98;;;5.28;94.26
24440;BME280;12618;54.386;18.394;2023-04-26T02:36:28;98845.88;;;5.26;94.77
24440;BME280;12618;54.386;18.394;2023-04-26T02:39:05;98841.91;;;5.25;94.82
24440;BME280;12618;54.386;18.394;2023-04-26T02:41:40;98842.70;;;5.22;95.28
24440;BME280;12618;54.386;18.394;2023-04-26T02:44:14;98844.61;;;5.22;95.20
24440;BME280;12618;54.386;18.394;2023-04-26T02:46:50;98847.39;;;5.23;95.25
24440;BME280;12618;54.386;18.394;2023-04-26T02:49:23;98843.30;;;5.20;95.66
24440;BME280;12618;54.386;18.394;2023-04-26T02:52:00;98848.41;;;5.19;96.08
24440;BME280;12618;54.386;18.394;2023-04-26T02:54:33;98843.77;;;5.17;95.83
24440;BME280;12618;54.386;18.394;2023-04-26T02:57:06;98845.02;;;5.16;96.12
24440;BME280;12618;54.386;18.394;2023-04-26T02:59:40;98841.54;;;5.17;95.95
24440;BME280;12618;54.386;18.394;2023-04-26T03:02:15;98845.36;;;5.17;96.17
24440;BME280;12618;54.386;18.394;2023-04-26T03:04:49;98845.49;;;5.18;95.96
24440;BME280;12618;54.386;18.394;2023-04-26T03:07:24;98840.98;;;5.18;95.96
24440;BME280;12618;54.386;18.394;2023-04-26T03:09:57;98838.05;;;5.17;95.88
24440;BME280;12618;54.386;18.394;2023-04-26T03:12:31;98847.62;;;5.17;96.00
24440;BME280;12618;54.386;18.394;2023-04-26T03:15:05;98849.00;;;5.17;96.28
24440;BME280;12618;54.386;18.394;2023-04-26T03:17:38;98851.63;;;5.17;96.05
24440;BME280;12618;54.386;18.394;2023-04-26T03:20:11;98850.46;;;5.16;96.14
24440;BME280;12618;54.386;18.394;2023-04-26T03:22:45;98854.17;;;5.14;96.03
24440;BME280;12618;54.386;18.394;2023-04-26T03:25:19;98851.22;;;5.14;96.21
24440;BME280;12618;54.386;18.394;2023-04-26T03:27:52;98855.08;;;5.13;96.20
24440;BME280;12618;54.386;18.394;2023-04-26T03:30:27;98854.75;;;5.12;96.15
24440;BME280;12618;54.386;18.394;2023-04-26T03:33:00;98854.25;;;5.12;95.91
24440;BME280;12618;54.386;18.394;2023-04-26T03:35:33;98858.41;;;5.12;96.15
24440;BME280;12618;54.386;18.394;2023-04-26T03:38:07;98856.03;;;5.10;96.26
24440;BME280;12618;54.386;18.394;2023-04-26T03:40:41;98859.02;;;5.10;95.89
24440;BME280;12618;54.386;18.394;2023-04-26T03:43:14;98860.77;;;5.10;96.30
24440;BME280;12618;54.386;18.394;2023-04-26T03:45:50;98861.95;;;5.11;96.43
24440;BME280;12618;54.386;18.394;2023-04-26T03:48:24;98862.27;;;5.12;96.13
24440;BME280;12618;54.386;18.394;2023-04-26T03:51:00;98866.13;;;5.11;95.92
24440;BME280;12618;54.386;18.394;2023-04-26T03:53:34;98868.22;;;5.11;95.91
24440;BME280;12618;54.386;18.394;2023-04-26T03:56:07;98866.45;;;5.12;96.01
24440;BME280;12618;54.386;18.394;2023-04-26T03:58:42;98864.92;;;5.10;96.32
24440;BME280;12618;54.386;18.394;2023-04-26T04:01:15;98868.37;;;5.12;96.27
24440;BME280;12618;54.386;18.394;2023-04-26T04:03:49;98872.05;;;5.11;95.94
24440;BME280;12618;54.386;18.394;2023-04-26T04:06:22;98872.85;;;5.09;95.68
24440;BME280;12618;54.386;18.394;2023-04-26T04:08:56;98873.84;;;5.06;95.96
24440;BME280;12618;54.386;18.394;2023-04-26T04:11:29;98880.82;;;5.06;96.14
24440;BME280;12618;54.386;18.394;2023-04-26T04:14:03;98874.89;;;5.06;96.18
24440;BME280;12618;54.386;18.394;2023-04-26T04:16:36;98880.88;;;5.08;96.38
24440;BME280;12618;54.386;18.394;2023-04-26T04:19:11;98882.83;;;5.08;96.35
24440;BME280;12618;54.386;18.394;2023-04-26T04:21:44;98882.46;;;5.08;96.23
24440;BME280;12618;54.386;18.394;2023-04-26T04:24:18;98882.45;;;5.04;96.08
24440;BME280;12618;54.386;18.394;2023-04-26T04:26:56;98881.27;;;5.03;96.38
24440;BME280;12618;54.386;18.394;2023-04-26T04:29:29;98883.24;;;5.01;97.33
24440;BME280;12618;54.386;18.394;2023-04-26T04:32:03;98878.73;;;5.01;96.91
24440;BME280;12618;54.386;18.394;2023-04-26T04:34:40;98885.66;;;5.02;96.88
24440;BME280;12618;54.386;18.394;2023-04-26T04:37:20;98886.83;;;5.08;97.18
24440;BME280;12618;54.386;18.394;2023-04-26T04:39:55;98889.16;;;5.10;96.99
24440;BME280;12618;54.386;18.394;2023-04-26T04:42:27;98891.24;;;5.11;96.62
24440;BME280;12618;54.386;18.394;2023-04-26T04:45:06;98894.15;;;5.12;96.82
24440;BME280;12618;54.386;18.394;2023-04-26T04:47:39;98894.08;;;5.14;96.78
24440;BME280;12618;54.386;18.394;2023-04-26T04:50:12;98894.21;;;5.20;97.11
24440;BME280;12618;54.386;18.394;2023-04-26T04:52:46;98894.83;;;5.18;96.62
24440;BME280;12618;54.386;18.394;2023-04-26T04:55:22;98896.39;;;5.18;97.17
24440;BME280;12618;54.386;18.394;2023-04-26T04:57:56;98897.95;;;5.23;97.51
24440;BME280;12618;54.386;18.394;2023-04-26T05:00:30;98897.34;;;5.25;97.23
24440;BME280;12618;54.386;18.394;2023-04-26T05:03:03;98899.74;;;5.26;97.07
24440;BME280;12618;54.386;18.394;2023-04-26T05:05:37;98899.45;;;5.25;97.20
24440;BME280;12618;54.386;18.394;2023-04-26T05:08:11;98904.30;;;5.25;97.15
24440;BME280;12618;54.386;18.394;2023-04-26T05:10:45;98910.44;;;5.24;96.91
24440;BME280;12618;54.386;18.394;2023-04-26T05:13:18;98908.05;;;5.23;96.49
24440;BME280;12618;54.386;18.394;2023-04-26T05:15:51;98909.53;;;5.21;96.93
24440;BME280;12618;54.386;18.394;2023-04-26T05:18:24;98909.67;;;5.22;96.86
24440;BME280;12618;54.386;18.394;2023-04-26T05:20:57;98907.93;;;5.26;97.49
24440;BME280;12618;54.386;18.394;2023-04-26T05:23:31;98915.19;;;5.32;96.89
24440;BME280;12618;54.386;18.394;2023-04-26T05:26:06;98915.46;;;5.34;96.49
24440;BME280;12618;54.386;18.394;2023-04-26T05:28:40;98914.11;;;5.37;96.23
24440;BME280;12618;54.386;18.394;2023-04-26T05:31:14;98906.68;;;5.44;95.91
24440;BME280;12618;54.386;18.394;2023-04-26T05:33:47;98901.13;;;5.56;95.84
24440;BME280;12618;54.386;18.394;2023-04-26T05:36:21;98899.33;;;5.66;95.77
24440;BME280;12618;54.386;18.394;2023-04-26T05:38:54;98907.19;;;5.78;95.44
24440;BME280;12618;54.386;18.394;2023-04-26T05:41:27;98911.48;;;5.94;94.61
24440;BME280;12618;54.386;18.394;2023-04-26T05:44:03;98909.46;;;6.09;93.98
24440;BME280;12618;54.386;18.394;2023-04-26T05:46:39;98911.35;;;6.17;92.85
24440;BME280;12618;54.386;18.394;2023-04-26T05:49:13;98912.79;;;6.20;92.41
24440;BME280;12618;54.386;18.394;2023-04-26T05:51:46;98912.05;;;6.13;91.10
24440;BME280;12618;54.386;18.394;2023-04-26T05:54:19;98915.88;;;6.09;91.29
24440;BME280;12618;54.386;18.394;2023-04-26T05:56:54;98922.16;;;6.01;90.91
24440;BME280;12618;54.386;18.394;2023-04-26T05:59:30;98925.14;;;6.01;91.07
24440;BME280;12618;54.386;18.394;2023-04-26T06:02:04;98923.91;;;6.06;91.23
24440;BME280;12618;54.386;18.394;2023-04-26T06:04:38;98924.42;;;6.02;91.54
24440;BME280;12618;54.386;18.394;2023-04-26T06:07:11;98923.90;;;6.02;92.12
24440;BME280;12618;54.386;18.394;2023-04-26T06:09:44;98929.72;;;6.00;91.66
24440;BME280;12618;54.386;18.394;2023-04-26T06:12:17;98929.76;;;5.99;91.61
24440;BME280;12618;54.386;18.394;2023-04-26T06:14:50;98932.31;;;6.01;91.83
24440;BME280;12618;54.386;18.394;2023-04-26T06:17:23;98931.48;;;5.96;90.63
24440;BME280;12618;54.386;18.394;2023-04-26T06:19:57;98933.97;;;5.95;90.77
24440;BME280;12618;54.386;18.394;2023-04-26T06:22:30;98929.17;;;5.97;90.74
24440;BME280;12618;54.386;18.394;2023-04-26T06:25:05;98927.06;;;5.97;90.26
24440;BME280;12618;54.386;18.394;2023-04-26T06:27:38;98923.05;;;6.05;90.01
24440;BME280;12618;54.386;18.394;2023-04-26T06:30:15;98924.94;;;6.14;89.54
24440;BME280;12618;54.386;18.394;2023-04-26T06:32:51;98919.13;;;6.27;88.90
24440;BME280;12618;54.386;18.394;2023-04-26T06:35:24;98919.77;;;6.37;87.89
24440;BME280;12618;54.386;18.394;2023-04-26T06:37:58;98918.67;;;6.42;86.68
24440;BME280;12618;54.386;18.394;2023-04-26T06:40:31;98914.98;;;6.81;87.39
24440;BME280;12618;54.386;18.394;2023-04-26T06:43:05;98916.61;;;7.65;86.23
24440;BME280;12618;54.386;18.394;2023-04-26T06:45:39;98916.64;;;8.44;80.99
24440;BME280;12618;54.386;18.394;2023-04-26T06:48:17;98921.79;;;8.60;80.17
24440;BME280;12618;54.386;18.394;2023-04-26T06:50:53;98922.12;;;8.54;79.17
24440;BME280;12618;54.386;18.394;2023-04-26T06:53:29;98920.64;;;8.35;78.91
24440;BME280;12618;54.386;18.394;2023-04-26T06:56:12;98922.58;;;8.18;77.97
24440;BME280;12618;54.386;18.394;2023-04-26T06:59:05;98927.21;;;7.91;77.49
24440;BME280;12618;54.386;18.394;2023-04-26T07:01:38;98928.09;;;7.74;80.22
24440;BME280;12618;54.386;18.394;2023-04-26T07:04:13;98926.84;;;7.70;80.57
24440;BME280;12618;54.386;18.394;2023-04-26T07:06:47;98932.66;;;7.56;78.91
24440;BME280;12618;54.386;18.394;2023-04-26T07:09:20;98934.16;;;7.39;79.99
24440;BME280;12618;54.386;18.394;2023-04-26T07:11:54;98932.98;;;7.26;80.22
24440;BME280;12618;54.386;18.394;2023-04-26T07:14:26;98933.02;;;7.14;80.88
24440;BME280;12618;54.386;18.394;2023-04-26T07:17:02;98937.63;;;7.02;83.02
24440;BME280;12618;54.386;18.394;2023-04-26T07:19:35;98938.80;;;7.07;83.94
24440;BME280;12618;54.386;18.394;2023-04-26T07:22:08;98936.23;;;7.13;82.79
24440;BME280;12618;54.386;18.394;2023-04-26T07:24:43;98940.65;;;7.35;81.59
24440;BME280;12618;54.386;18.394;2023-04-26T07:27:16;98943.41;;;8.01;80.90
24440;BME280;12618;54.386;18.394;2023-04-26T07:29:53;98936.63;;;8.24;78.88
24440;BME280;12618;54.386;18.394;2023-04-26T07:32:27;98936.88;;;8.33;79.31
24440;BME280;12618;54.386;18.394;2023-04-26T07:35:04;98941.66;;;8.46;76.76
24440;BME280;12618;54.386;18.394;2023-04-26T07:37:43;98941.10;;;8.25;76.98
24440;BME280;12618;54.386;18.394;2023-04-26T07:40:18;98945.20;;;8.10;77.30
24440;BME280;12618;54.386;18.394;2023-04-26T07:42:58;98948.14;;;7.90;77.42
24440;BME280;12618;54.386;18.394;2023-04-26T07:45:31;98951.10;;;7.58;78.75
24440;BME280;12618;54.386;18.394;2023-04-26T07:48:08;98954.03;;;7.48;80.69
24440;BME280;12618;54.386;18.394;2023-04-26T07:50:41;98954.00;;;7.56;80.99
24440;BME280;12618;54.386;18.394;2023-04-26T07:53:15;98957.23;;;7.58;80.37
24440;BME280;12618;54.386;18.394;2023-04-26T07:55:49;98950.02;;;7.69;80.99
24440;BME280;12618;54.386;18.394;2023-04-26T07:58:23;98952.29;;;7.87;79.94
24440;BME280;12618;54.386;18.394;2023-04-26T08:00:56;98953.92;;;7.86;80.04
24440;BME280;12618;54.386;18.394;2023-04-26T08:03:33;98954.98;;;7.93;79.71
24440;BME280;12618;54.386;18.394;2023-04-26T08:06:11;98958.26;;;7.80;80.33
24440;BME280;12618;54.386;18.394;2023-04-26T08:08:45;98961.58;;;7.69;80.99
24440;BME280;12618;54.386;18.394;2023-04-26T08:11:22;98970.82;;;7.44;82.33
24440;BME280;12618;54.386;18.394;2023-04-26T08:13:56;98970.60;;;7.23;88.24
24440;BME280;12618;54.386;18.394;2023-04-26T08:16:29;98978.17;;;6.83;92.19
24440;BME280;12618;54.386;18.394;2023-04-26T08:19:03;98977.35;;;6.59;95.72
24440;BME280;12618;54.386;18.394;2023-04-26T08:21:36;98973.65;;;6.39;96.52
24440;BME280;12618;54.386;18.394;2023-04-26T08:24:09;98979.09;;;6.18;99.14
24440;BME280;12618;54.386;18.394;2023-04-26T08:26:43;98974.28;;;6.04;100.00
24440;BME280;12618;54.386;18.394;2023-04-26T08:29:19;98976.05;;;5.94;100.00
24440;BME280;12618;54.386;18.394;2023-04-26T08:31:54;98972.67;;;5.92;100.00
24440;BME280;12618;54.386;18.394;2023-04-26T08:34:27;98977.91;;;5.92;100.00
24440;BME280;12618;54.386;18.394;2023-04-26T08:37:01;98978.13;;;5.91;100.00
24440;BME280;12618;54.386;18.394;2023-04-26T08:39:34;98972.52;;;5.95;100.00
24440;BME280;12618;54.386;18.394;2023-04-26T08:42:14;98971.38;;;6.06;100.00
24440;BME280;12618;54.386;18.394;2023-04-26T08:44:48;98977.33;;;6.14;100.00
24440;BME280;12618;54.386;18.394;2023-04-26T08:47:28;98977.48;;;6.19;100.00
24440;BME280;12618;54.386;18.394;2023-04-26T08:50:07;98982.14;;;6.16;100.00
24440;BME280;12618;54.386;18.394;2023-04-26T08:52:42;98983.97;;;6.18;100.00
24440;BME280;12618;54.386;18.394;2023-04-26T08:55:18;98987.10;;;6.31;100.00
24440;BME280;12618;54.386;18.394;2023-04-26T08:57:54;98992.48;;;6.40;100.00
24440;BME280;12618;54.386;18.394;2023-04-26T09:00:29;98997.83;;;6.37;100.00
24440;BME280;12618;54.386;18.394;2023-04-26T09:03:11;98995.20;;;6.33;100.00
24440;BME280;12618;54.386;18.394;2023-04-26T09:05:51;98997.27;;;6.34;100.00
24440;BME280;12618;54.386;18.394;2023-04-26T09:08:25;99001.27;;;6.35;100.00
24440;BME280;12618;54.386;18.394;2023-04-26T09:11:03;99000.38;;;6.35;100.00
24440;BME280;12618;54.386;18.394;2023-04-26T09:13:36;99006.06;;;6.33;100.00
24440;BME280;12618;54.386;18.394;2023-04-26T09:16:10;99012.52;;;6.25;100.00
24440;BME280;12618;54.386;18.394;2023-04-26T09:18:49;99007.41;;;6.21;100.00
24440;BME280;12618;54.386;18.394;2023-04-26T09:21:28;99007.36;;;6.27;100.00
24440;BME280;12618;54.386;18.394;2023-04-26T09:24:03;99009.41;;;6.40;100.00
24440;BME280;12618;54.386;18.394;2023-04-26T09:26:39;99008.00;;;6.45;100.00
24440;BME280;12618;54.386;18.394;2023-04-26T09:29:17;99012.77;;;6.51;100.00
24440;BME280;12618;54.386;18.394;2023-04-26T09:31:52;99015.78;;;6.54;100.00
24440;BME280;12618;54.386;18.394;2023-04-26T09:34:26;99023.96;;;6.60;100.00
24440;BME280;12618;54.386;18.394;2023-04-26T09:36:59;99023.18;;;6.78;100.00
24440;BME280;12618;54.386;18.394;2023-04-26T09:39:35;99025.58;;;7.03;100.00
24440;BME280;12618;54.386;18.394;2023-04-26T09:42:09;99024.86;;;7.22;100.00
24440;BME280;12618;54.386;18.394;2023-04-26T09:44:45;99027.05;;;7.40;100.00
24440;BME280;12618;54.386;18.394;2023-04-26T09:47:21;99026.50;;;7.70;100.00
24440;BME280;12618;54.386;18.394;2023-04-26T09:49:55;99035.52;;;7.83;100.00
24440;BME280;12618;54.386;18.394;2023-04-26T09:52:28;99036.52;;;7.50;100.00
24440;BME280;12618;54.386;18.394;2023-04-26T09:55:01;99039.88;;;7.31;100.00
24440;BME280;12618;54.386;18.394;2023-04-26T09:57:41;99042.66;;;7.12;100.00
24440;BME280;12618;54.386;18.394;2023-04-26T10:00:16;99045.08;;;6.97;100.00
24440;BME280;12618;54.386;18.394;2023-04-26T10:02:53;99050.17;;;6.72;100.00
24440;BME280;12618;54.386;18.394;2023-04-26T10:05:31;99057.10;;;6.45;100.00
24440;BME280;12618;54.386;18.394;2023-04-26T10:08:05;99059.00;;;6.24;100.00
24440;BME280;12618;54.386;18.394;2023-04-26T10:10:41;99065.58;;;6.21;100.00
24440;BME280;12618;54.386;18.394;2023-04-26T10:13:17;99067.77;;;6.15;100.00
24440;BME280;12618;54.386;18.394;2023-04-26T10:15:51;99067.95;;;6.10;100.00
24440;BME280;12618;54.386;18.394;2023-04-26T10:18:26;99068.15;;;6.10;100.00
24440;BME280;12618;54.386;18.394;2023-04-26T10:21:03;99072.42;;;6.12;100.00
24440;BME280;12618;54.386;18.394;2023-04-26T10:23:39;99079.00;;;6.18;100.00
24440;BME280;12618;54.386;18.394;2023-04-26T10:26:50;99085.81;;;6.13;100.00
24440;BME280;12618;54.386;18.394;2023-04-26T10:30:04;99093.38;;;6.03;100.00
24440;BME280;12618;54.386;18.394;2023-04-26T10:32:20;99095.06;;;5.96;100.00
24440;BME280;12618;54.386;18.394;2023-04-26T10:35:20;99097.93;;;5.89;100.00
24440;BME280;12618;54.386;18.394;2023-04-26T10:40:38;99101.29;;;5.78;100.00
24440;BME280;12618;54.386;18.394;2023-04-26T10:45:47;99113.09;;;5.67;100.00
24440;BME280;12618;54.386;18.394;2023-04-26T10:48:29;99110.02;;;5.60;100.00
24440;BME280;12618;54.386;18.394;2023-04-26T10:59:07;99113.48;;;6.51;100.00
24440;BME280;12618;54.386;18.394;2023-04-26T11:02:01;99112.60;;;6.96;100.00
24440;BME280;12618;54.386;18.394;2023-04-26T11:04:51;99110.49;;;7.16;100.00
24440;BME280;12618;54.386;18.394;2023-04-26T11:07:37;99108.17;;;7.34;100.00
24440;BME280;12618;54.386;18.394;2023-04-26T11:10:26;99111.59;;;7.35;100.00
24440;BME280;12618;54.386;18.394;2023-04-26T11:13:16;99121.35;;;7.04;100.00
24440;BME280;12618;54.386;18.394;2023-04-26T11:15:58;99131.06;;;6.73;100.00
24440;BME280;12618;54.386;18.394;2023-04-26T11:18:35;99129.83;;;6.70;100.00
24440;BME280;12618;54.386;18.394;2023-04-26T11:21:09;99127.41;;;6.73;100.00
24440;BME280;12618;54.386;18.394;2023-04-26T11:23:52;99129.23;;;6.84;100.00
24440;BME280;12618;54.386;18.394;2023-04-26T11:26:32;99127.39;;;7.02;100.00
24440;BME280;12618;54.386;18.394;2023-04-26T11:29:09;99129.79;;;7.07;100.00
24440;BME280;12618;54.386;18.394;2023-04-26T11:31:53;99138.08;;;7.10;99.58
24440;BME280;12618;54.386;18.394;2023-04-26T11:34:37;99136.08;;;6.91;98.22
24440;BME280;12618;54.386;18.394;2023-04-26T11:37:14;99138.52;;;6.91;98.96
24440;BME280;12618;54.386;18.394;2023-04-26T11:39:50;99139.10;;;7.15;97.07
24440;BME280;12618;54.386;18.394;2023-04-26T11:42:27;99137.20;;;7.38;95.32
24440;BME280;12618;54.386;18.394;2023-04-26T11:45:00;99139.59;;;7.62;91.26
24440;BME280;12618;54.386;18.394;2023-04-26T11:47:34;99136.58;;;8.05;90.95
24440;BME280;12618;54.386;18.394;2023-04-26T11:50:08;99147.55;;;8.22;87.37
24440;BME280;12618;54.386;18.394;2023-04-26T11:52:43;99158.55;;;7.92;83.33
24440;BME280;12618;54.386;18.394;2023-04-26T11:55:17;99163.40;;;7.55;85.20
24440;BME280;12618;54.386;18.394;2023-04-26T11:57:50;99166.14;;;7.41;88.49
24440;BME280;12618;54.386;18.394;2023-04-26T12:00:25;99166.24;;;7.42;91.05
24440;BME280;12618;54.386;18.394;2023-04-26T12:03:06;99168.72;;;7.50;90.18
24440;BME280;12618;54.386;18.394;2023-04-26T12:05:53;99173.05;;;7.85;91.28
24440;BME280;12618;54.386;18.394;2023-04-26T12:08:31;99175.20;;;7.80;83.00
24440;BME280;12618;54.386;18.394;2023-04-26T12:11:18;99172.75;;;7.65;82.85
24440;BME280;12618;54.386;18.394;2023-04-26T12:14:18;99170.67;;;8.03;82.97
24440;BME280;12618;54.386;18.394;2023-04-26T12:16:52;99164.85;;;8.49;83.41
24440;BME280;12618;54.386;18.394;2023-04-26T12:19:25;99176.63;;;8.41;74.23
24440;BME280;12618;54.386;18.394;2023-04-26T12:22:00;99178.22;;;8.03;74.23
24440;BME280;12618;54.386;18.394;2023-04-26T12:24:33;99179.13;;;7.83;74.04
24440;BME280;12618;54.386;18.394;2023-04-26T12:27:19;99178.20;;;7.84;76.74
24440;BME280;12618;54.386;18.394;2023-04-26T12:29:53;99183.17;;;8.05;78.98
24440;BME280;12618;54.386;18.394;2023-04-26T12:32:27;99182.23;;;8.63;78.29
24440;BME280;12618;54.386;18.394;2023-04-26T12:35:03;99180.90;;;9.04;78.63
24440;BME280;12618;54.386;18.394;2023-04-26T12:37:37;99177.91;;;9.07;74.34
24440;BME280;12618;54.386;18.394;2023-04-26T12:40:11;99175.70;;;9.13;75.35
24440;BME280;12618;54.386;18.394;2023-04-26T12:42:48;99173.77;;;9.26;71.97
24440;BME280;12618;54.386;18.394;2023-04-26T12:45:23;99183.74;;;9.37;68.20
24440;BME280;12618;54.386;18.394;2023-04-26T12:47:57;99193.09;;;9.09;65.77
24440;BME280;12618;54.386;18.394;2023-04-26T12:50:30;99191.81;;;9.00;69.39
24440;BME280;12618;54.386;18.394;2023-04-26T12:53:04;99181.88;;;9.26;68.56
24440;BME280;12618;54.386;18.394;2023-04-26T12:55:37;99183.96;;;9.64;68.70
24440;BME280;12618;54.386;18.394;2023-04-26T12:58:10;99185.39;;;9.99;72.25
24440;BME280;12618;54.386;18.394;2023-04-26T13:00:44;99192.59;;;10.12;63.14
24440;BME280;12618;54.386;18.394;2023-04-26T13:03:17;99194.20;;;9.89;62.63
24440;BME280;12618;54.386;18.394;2023-04-26T13:05:50;99197.36;;;9.76;59.09
24440;BME280;12618;54.386;18.394;2023-04-26T13:08:24;99203.15;;;9.73;58.98
24440;BME280;12618;54.386;18.394;2023-04-26T13:10:58;99202.42;;;9.90;59.64
24440;BME280;12618;54.386;18.394;2023-04-26T13:13:31;99200.59;;;10.21;57.53
24440;BME280;12618;54.386;18.394;2023-04-26T13:16:15;99207.54;;;10.06;52.45
24440;BME280;12618;54.386;18.394;2023-04-26T13:18:48;99210.45;;;9.84;53.99
24440;BME280;12618;54.386;18.394;2023-04-26T13:21:21;99207.84;;;10.00;54.74
24440;BME280;12618;54.386;18.394;2023-04-26T13:23:55;99213.61;;;10.13;55.39
24440;BME280;12618;54.386;18.394;2023-04-26T13:26:28;99215.73;;;10.17;52.65
24440;BME280;12618;54.386;18.394;2023-04-26T13:29:02;99214.62;;;10.11;52.23
24440;BME280;12618;54.386;18.394;2023-04-26T13:31:36;99221.64;;;10.08;52.63
24440;BME280;12618;54.386;18.394;2023-04-26T13:34:12;99224.30;;;10.14;53.46
24440;BME280;12618;54.386;18.394;2023-04-26T13:36:45;99228.83;;;10.08;51.66
24440;BME280;12618;54.386;18.394;2023-04-26T13:39:19;99219.88;;;10.08;52.79
24440;BME280;12618;54.386;18.394;2023-04-26T13:41:53;99229.67;;;10.19;52.54
24440;BME280;12618;54.386;18.394;2023-04-26T13:44:27;99231.20;;;10.31;52.21
24440;BME280;12618;54.386;18.394;2023-04-26T13:47:03;99232.04;;;10.38;54.73
24440;BME280;12618;54.386;18.394;2023-04-26T13:49:37;99228.17;;;10.50;60.83
24440;BME280;12618;54.386;18.394;2023-04-26T13:52:13;99243.12;;;10.41;55.83
24440;BME280;12618;54.386;18.394;2023-04-26T13:54:46;99235.80;;;10.33;54.70